Primm Springs, Tennessee
Current Conditions -  °F | °C
As of 8:35 PM on Sunday 21 Dec 2014 (Local Time) from KMRC Reporting Station
Clear Clear  
Wind Chill: 43°   Ceiling: Unl
Heat Index: 43°   Visibility: 10mi
Dew Point: 43°   Wind: 3mph
Humidity: 100%   Direction: 150°SSE
Pressure: 30.03"   Gusts: NA
Location:  35.82°N, 87.25°W
Report Text: KMRC 220235Z AUTO 15003KT 10SM CLR 06/06 A3003 RMK
Loading
Personal Weather Stations






























Interactive Weather Map New forecast layout! Learn more

10-Day Weather Forecast

Advertisements
Track Severe Weather on mobile